Pays
Station

 

Conditions  météo  pour  Caernarfon  -  Royaume-Uni    Royaume-Uni

  
16 °C
    
 
 

METAR pour Caernarfon :

EGCK 180850Z 22006KT 190V250 9999 FEW010 SCT039 16/11 Q1013

 

Voici le bulletin pour Caernarfon - Royaume-Uni.
 
Le bulletin a été fait il y a 6 minutes, à 08:50 UTC .
Le vent soufflait à la vitesse de 3.1 mètres par seconde de Sud-ouest (220°), variant entre Sud (190°) et Ouest/Sud-ouest (250°).
 
La température était de 16 °C, avec un point de rosée à 11 °C.
La pression atmosphérique était de 1013 hPa.
L'humidité relative était de 72.2%.
 
Il y avait 1 à 2/8ème de nébulosité à une hauteur de 305 mètres et 3 à 4/8ème de nébulosité à une hauteur de 1189 mètres.
 
La visibilité globale était de supérieure à 10 kilomètres.
 

 
 
 

Pays :   A   B   C   D   E   F   G   H   I   J   K   L   M   N   O   P   Q   R   S   T   U   V   W   Y   Z

 

Partenaires :  Info Météo avec Met'info
Météo Marine avec MeteoMarine.net
Infos Site  |  Infos Légales  |  Crédits  |  Confidentialité
Contactez-nous  |  Ajouter aux favoris
© 2013-2019 METAR - Tous droits réservés